sensor_id;sensor_type;location;lat;lon;timestamp;pressure;altitude;pressure_sealevel;temperature;humidity
36242;BME280;22283;42.748;12.732;2023-04-10T00:02:13;98565.09;;;2.47;95.80
36242;BME280;22283;42.748;12.732;2023-04-10T00:07:13;98549.00;;;2.34;98.89
36242;BME280;22283;42.748;12.732;2023-04-10T00:12:15;98541.84;;;2.13;100.00
36242;BME280;22283;42.748;12.732;2023-04-10T00:17:15;98533.41;;;2.06;100.00
36242;BME280;22283;42.748;12.732;2023-04-10T00:22:17;98520.19;;;2.11;100.00
36242;BME280;22283;42.748;12.732;2023-04-10T00:27:17;98515.00;;;2.09;100.00
36242;BME280;22283;42.748;12.732;2023-04-10T00:32:18;98513.72;;;2.22;100.00
36242;BME280;22283;42.748;12.732;2023-04-10T00:37:19;98520.81;;;2.17;100.00
36242;BME280;22283;42.748;12.732;2023-04-10T00:42:20;98510.38;;;2.17;100.00
36242;BME280;22283;42.748;12.732;2023-04-10T00:47:21;98526.63;;;2.26;100.00
36242;BME280;22283;42.748;12.732;2023-04-10T00:52:23;98528.63;;;2.19;100.00
36242;BME280;22283;42.748;12.732;2023-04-10T00:57:24;98526.69;;;2.24;99.86
36242;BME280;22283;42.748;12.732;2023-04-10T01:02:26;98534.13;;;2.10;99.93
36242;BME280;22283;42.748;12.732;2023-04-10T01:28:20;98531.13;;;1.67;100.00
36242;BME280;22283;42.748;12.732;2023-04-10T01:33:33;98515.97;;;1.52;100.00
36242;BME280;22283;42.748;12.732;2023-04-10T01:38:35;98524.19;;;1.38;100.00
36242;BME280;22283;42.748;12.732;2023-04-10T01:43:39;98506.41;;;1.23;100.00
36242;BME280;22283;42.748;12.732;2023-04-10T01:48:41;98507.03;;;1.31;100.00
36242;BME280;22283;42.748;12.732;2023-04-10T01:53:44;98504.47;;;1.30;100.00
36242;BME280;22283;42.748;12.732;2023-04-10T01:58:46;98496.78;;;1.25;100.00
36242;BME280;22283;42.748;12.732;2023-04-10T02:03:47;98500.00;;;1.33;100.00
36242;BME280;22283;42.748;12.732;2023-04-10T02:09:11;98500.22;;;1.27;100.00
36242;BME280;22283;42.748;12.732;2023-04-10T02:14:16;98483.22;;;1.14;100.00
36242;BME280;22283;42.748;12.732;2023-04-10T02:19:18;98496.44;;;1.08;100.00
36242;BME280;22283;42.748;12.732;2023-04-10T02:24:20;98507.66;;;1.10;100.00
36242;BME280;22283;42.748;12.732;2023-04-10T02:29:21;98507.66;;;1.10;100.00
36242;BME280;22283;42.748;12.732;2023-04-10T02:34:21;98504.75;;;1.20;100.00
36242;BME280;22283;42.748;12.732;2023-04-10T02:39:22;98508.03;;;1.27;100.00
36242;BME280;22283;42.748;12.732;2023-04-10T02:44:25;98492.56;;;1.49;100.00
36242;BME280;22283;42.748;12.732;2023-04-10T02:49:26;98503.72;;;1.54;100.00
36242;BME280;22283;42.748;12.732;2023-04-10T02:54:27;98494.00;;;1.59;100.00
36242;BME280;22283;42.748;12.732;2023-04-10T02:59:28;98490.03;;;1.47;100.00
36242;BME280;22283;42.748;12.732;2023-04-10T03:04:31;98492.72;;;1.44;100.00
36242;BME280;22283;42.748;12.732;2023-04-10T03:09:32;98495.38;;;1.43;100.00
36242;BME280;22283;42.748;12.732;2023-04-10T03:14:33;98499.06;;;1.36;100.00
36242;BME280;22283;42.748;12.732;2023-04-10T03:19:34;98498.19;;;1.07;100.00
36242;BME280;22283;42.748;12.732;2023-04-10T03:24:35;98506.75;;;1.11;100.00
36242;BME280;22283;42.748;12.732;2023-04-10T03:29:35;98495.88;;;0.96;100.00
36242;BME280;22283;42.748;12.732;2023-04-10T03:34:36;98505.53;;;0.93;100.00
36242;BME280;22283;42.748;12.732;2023-04-10T03:39:43;98500.91;;;1.03;100.00
36242;BME280;22283;42.748;12.732;2023-04-10T03:44:47;98504.69;;;0.92;100.00
36242;BME280;22283;42.748;12.732;2023-04-10T03:49:48;98489.47;;;1.08;100.00
36242;BME280;22283;42.748;12.732;2023-04-10T03:54:49;98498.69;;;1.18;100.00
36242;BME280;22283;42.748;12.732;2023-04-10T03:59:58;98493.16;;;1.31;100.00
36242;BME280;22283;42.748;12.732;2023-04-10T04:05:00;98503.81;;;1.23;100.00
36242;BME280;22283;42.748;12.732;2023-04-10T04:10:20;98513.69;;;1.12;100.00
36242;BME280;22283;42.748;12.732;2023-04-10T04:15:34;98510.81;;;0.90;100.00
36242;BME280;22283;42.748;12.732;2023-04-10T04:20:58;98523.50;;;0.38;100.00
36242;BME280;22283;42.748;12.732;2023-04-10T04:26:11;98534.16;;;0.29;100.00
36242;BME280;22283;42.748;12.732;2023-04-10T04:31:35;98518.00;;;0.16;100.00
36242;BME280;22283;42.748;12.732;2023-04-10T04:37:07;98523.16;;;0.18;100.00
36242;BME280;22283;42.748;12.732;2023-04-10T04:42:30;98535.78;;;0.33;100.00
36242;BME280;22283;42.748;12.732;2023-04-10T04:47:45;98545.97;;;0.42;100.00
36242;BME280;22283;42.748;12.732;2023-04-10T04:53:01;98545.63;;;0.55;100.00
36242;BME280;22283;42.748;12.732;2023-04-10T04:58:14;98547.59;;;0.46;100.00
36242;BME280;22283;42.748;12.732;2023-04-10T05:03:27;98556.06;;;0.55;100.00
36242;BME280;22283;42.748;12.732;2023-04-10T05:08:51;98556.81;;;0.58;100.00
36242;BME280;22283;42.748;12.732;2023-04-10T05:14:12;98557.59;;;0.62;100.00
36242;BME280;22283;42.748;12.732;2023-04-10T05:19:36;98567.78;;;0.71;100.00
36242;BME280;22283;42.748;12.732;2023-04-10T05:25:10;98552.00;;;0.77;100.00
36242;BME280;22283;42.748;12.732;2023-04-10T05:30:29;98562.91;;;0.91;100.00
36242;BME280;22283;42.748;12.732;2023-04-10T05:35:58;98566.88;;;1.05;100.00
36242;BME280;22283;42.748;12.732;2023-04-10T05:41:11;98563.13;;;1.15;100.00
36242;BME280;22283;42.748;12.732;2023-04-10T05:46:19;98570.78;;;1.51;100.00
36242;BME280;22283;42.748;12.732;2023-04-10T05:51:39;98556.09;;;2.56;100.00
36242;BME280;22283;42.748;12.732;2023-04-10T05:57:08;98558.00;;;3.49;100.00
36242;BME280;22283;42.748;12.732;2023-04-10T06:02:28;98551.81;;;4.80;89.03
36242;BME280;22283;42.748;12.732;2023-04-10T06:07:29;98556.63;;;5.68;80.82
36242;BME280;22283;42.748;12.732;2023-04-10T06:12:32;98567.19;;;5.48;81.38
36242;BME280;22283;42.748;12.732;2023-04-10T06:17:34;98577.81;;;5.45;81.21
36242;BME280;22283;42.748;12.732;2023-04-10T06:22:39;98582.00;;;5.49;81.78
36242;BME280;22283;42.748;12.732;2023-04-10T06:27:39;98579.91;;;6.50;77.69
36242;BME280;22283;42.748;12.732;2023-04-10T06:32:43;98575.53;;;7.18;72.42
36242;BME280;22283;42.748;12.732;2023-04-10T06:37:44;98579.97;;;7.98;68.36
36242;BME280;22283;42.748;12.732;2023-04-10T06:42:45;98567.47;;;8.33;65.77
36242;BME280;22283;42.748;12.732;2023-04-10T06:48:00;98564.28;;;8.89;62.89
36242;BME280;22283;42.748;12.732;2023-04-10T06:53:01;98557.56;;;9.27;63.18
36242;BME280;22283;42.748;12.732;2023-04-10T06:58:02;98548.78;;;9.97;59.43
36242;BME280;22283;42.748;12.732;2023-04-10T07:03:03;98540.53;;;10.16;57.11
36242;BME280;22283;42.748;12.732;2023-04-10T07:08:03;98545.16;;;10.26;55.58
36242;BME280;22283;42.748;12.732;2023-04-10T07:13:04;98548.88;;;10.37;56.35
36242;BME280;22283;42.748;12.732;2023-04-10T07:18:05;98552.81;;;9.75;59.19
36242;BME280;22283;42.748;12.732;2023-04-10T07:23:06;98541.34;;;9.19;60.17
36242;BME280;22283;42.748;12.732;2023-04-10T07:28:07;98550.84;;;9.07;60.90
36242;BME280;22283;42.748;12.732;2023-04-10T07:33:07;98531.13;;;9.13;58.71
36242;BME280;22283;42.748;12.732;2023-04-10T07:38:09;98532.03;;;9.83;58.38
36242;BME280;22283;42.748;12.732;2023-04-10T07:43:11;98549.50;;;10.54;55.55
36242;BME280;22283;42.748;12.732;2023-04-10T07:48:11;98545.81;;;10.30;55.18
36242;BME280;22283;42.748;12.732;2023-04-10T07:53:12;98543.69;;;9.94;58.31
36242;BME280;22283;42.748;12.732;2023-04-10T07:58:13;98533.59;;;9.59;59.35
36242;BME280;22283;42.748;12.732;2023-04-10T08:03:14;98558.28;;;9.72;59.81
36242;BME280;22283;42.748;12.732;2023-04-10T08:08:15;98555.06;;;9.81;59.15
36242;BME280;22283;42.748;12.732;2023-04-10T08:13:16;98550.53;;;9.98;58.04
36242;BME280;22283;42.748;12.732;2023-04-10T08:18:17;98550.38;;;10.41;56.29
36242;BME280;22283;42.748;12.732;2023-04-10T08:23:18;98553.78;;;10.82;54.76
36242;BME280;22283;42.748;12.732;2023-04-10T08:28:18;98562.63;;;10.69;56.18
36242;BME280;22283;42.748;12.732;2023-04-10T08:33:20;98569.81;;;10.54;55.69
36242;BME280;22283;42.748;12.732;2023-04-10T08:38:21;98586.88;;;10.36;55.65
36242;BME280;22283;42.748;12.732;2023-04-10T08:43:24;98574.50;;;10.76;56.90
36242;BME280;22283;42.748;12.732;2023-04-10T08:48:34;98569.16;;;10.50;55.96
36242;BME280;22283;42.748;12.732;2023-04-10T08:53:39;98562.03;;;10.24;57.11
36242;BME280;22283;42.748;12.732;2023-04-10T08:58:41;98558.13;;;10.83;57.17
36242;BME280;22283;42.748;12.732;2023-04-10T09:03:42;98546.38;;;10.88;54.05
36242;BME280;22283;42.748;12.732;2023-04-10T09:08:46;98550.38;;;10.80;54.27
36242;BME280;22283;42.748;12.732;2023-04-10T09:13:47;98549.50;;;10.67;52.99
36242;BME280;22283;42.748;12.732;2023-04-10T09:18:49;98551.19;;;10.68;54.06
36242;BME280;22283;42.748;12.732;2023-04-10T09:23:59;98551.88;;;10.84;50.24
36242;BME280;22283;42.748;12.732;2023-04-10T09:29:05;98548.88;;;10.76;49.67
36242;BME280;22283;42.748;12.732;2023-04-10T09:34:21;98550.00;;;11.12;48.58
36242;BME280;22283;42.748;12.732;2023-04-10T09:39:36;98559.94;;;11.08;48.50
36242;BME280;22283;42.748;12.732;2023-04-10T09:44:41;98547.25;;;11.26;48.73
36242;BME280;22283;42.748;12.732;2023-04-10T09:49:45;98549.25;;;11.36;47.66
36242;BME280;22283;42.748;12.732;2023-04-10T09:54:47;98532.59;;;11.59;47.58
36242;BME280;22283;42.748;12.732;2023-04-10T09:59:53;98536.25;;;11.95;45.89
36242;BME280;22283;42.748;12.732;2023-04-10T10:04:54;98533.72;;;12.17;45.74
36242;BME280;22283;42.748;12.732;2023-04-10T10:09:56;98546.78;;;11.84;46.88
36242;BME280;22283;42.748;12.732;2023-04-10T10:21:08;98541.28;;;11.61;48.13
36242;BME280;22283;42.748;12.732;2023-04-10T10:26:09;98542.75;;;11.65;48.02
36242;BME280;22283;42.748;12.732;2023-04-10T10:31:10;98548.84;;;12.04;47.85
36242;BME280;22283;42.748;12.732;2023-04-10T10:36:13;98550.28;;;12.21;48.31
36242;BME280;22283;42.748;12.732;2023-04-10T10:41:26;98559.50;;;12.39;48.93
36242;BME280;22283;42.748;12.732;2023-04-10T10:46:34;98561.28;;;12.51;47.39
36242;BME280;22283;42.748;12.732;2023-04-10T10:51:48;98544.50;;;12.51;47.95
36242;BME280;22283;42.748;12.732;2023-04-10T10:56:49;98551.06;;;12.34;48.15
36242;BME280;22283;42.748;12.732;2023-04-10T11:07:13;98544.03;;;13.72;45.90
36242;BME280;22283;42.748;12.732;2023-04-10T11:12:15;98560.09;;;13.48;45.35
36242;BME280;22283;42.748;12.732;2023-04-10T11:17:51;98536.81;;;13.05;45.51
36242;BME280;22283;42.748;12.732;2023-04-10T11:23:09;98549.50;;;13.02;45.05
36242;BME280;22283;42.748;12.732;2023-04-10T11:33:31;98555.63;;;13.49;44.53
36242;BME280;22283;42.748;12.732;2023-04-10T11:38:32;98531.72;;;13.83;43.92
36242;BME280;22283;42.748;12.732;2023-04-10T11:43:33;98524.56;;;13.94;43.72
36242;BME280;22283;42.748;12.732;2023-04-10T11:48:35;98520.72;;;14.31;42.97
36242;BME280;22283;42.748;12.732;2023-04-10T11:53:37;98534.53;;;14.13;42.81
36242;BME280;22283;42.748;12.732;2023-04-10T11:58:38;98542.34;;;13.38;43.64
36242;BME280;22283;42.748;12.732;2023-04-10T12:03:41;98540.66;;;13.59;42.50
36242;BME280;22283;42.748;12.732;2023-04-10T12:08:46;98526.88;;;13.32;43.76
36242;BME280;22283;42.748;12.732;2023-04-10T12:13:54;98506.19;;;13.13;44.50
36242;BME280;22283;42.748;12.732;2023-04-10T12:18:55;98501.41;;;13.51;43.58
36242;BME280;22283;42.748;12.732;2023-04-10T12:23:56;98510.06;;;13.76;42.73
36242;BME280;22283;42.748;12.732;2023-04-10T12:28:57;98487.25;;;14.49;43.01
36242;BME280;22283;42.748;12.732;2023-04-10T12:33:59;98509.47;;;13.72;43.62
36242;BME280;22283;42.748;12.732;2023-04-10T12:39:02;98495.00;;;13.32;44.52
36242;BME280;22283;42.748;12.732;2023-04-10T12:44:11;98491.38;;;13.33;44.26
36242;BME280;22283;42.748;12.732;2023-04-10T12:49:14;98492.16;;;12.99;44.43
36242;BME280;22283;42.748;12.732;2023-04-10T12:54:31;98481.41;;;13.01;44.56
36242;BME280;22283;42.748;12.732;2023-04-10T12:59:32;98483.84;;;13.04;43.84
36242;BME280;22283;42.748;12.732;2023-04-10T13:04:33;98486.44;;;13.39;42.39
36242;BME280;22283;42.748;12.732;2023-04-10T13:09:34;98479.00;;;13.76;43.09
36242;BME280;22283;42.748;12.732;2023-04-10T13:14:34;98470.16;;;14.31;43.07
36242;BME280;22283;42.748;12.732;2023-04-10T13:19:36;98473.91;;;13.85;41.72
36242;BME280;22283;42.748;12.732;2023-04-10T13:24:36;98462.09;;;13.21;42.43
36242;BME280;22283;42.748;12.732;2023-04-10T13:29:40;98464.03;;;13.19;42.63
36242;BME280;22283;42.748;12.732;2023-04-10T13:34:41;98467.31;;;13.57;42.85
36242;BME280;22283;42.748;12.732;2023-04-10T13:39:42;98456.06;;;13.53;40.94
36242;BME280;22283;42.748;12.732;2023-04-10T13:44:43;98460.69;;;13.62;41.37
36242;BME280;22283;42.748;12.732;2023-04-10T13:49:43;98462.25;;;13.97;39.37
36242;BME280;22283;42.748;12.732;2023-04-10T13:54:45;98449.72;;;13.88;40.62
36242;BME280;22283;42.748;12.732;2023-04-10T13:59:45;98446.44;;;13.95;40.57
36242;BME280;22283;42.748;12.732;2023-04-10T14:04:46;98438.19;;;14.10;40.70
36242;BME280;22283;42.748;12.732;2023-04-10T14:09:47;98446.22;;;14.72;39.13
36242;BME280;22283;42.748;12.732;2023-04-10T14:14:48;98436.63;;;14.60;39.75
36242;BME280;22283;42.748;12.732;2023-04-10T14:19:48;98442.94;;;14.59;38.86
36242;BME280;22283;42.748;12.732;2023-04-10T14:24:51;98426.44;;;14.33;39.82
36242;BME280;22283;42.748;12.732;2023-04-10T14:29:51;98415.53;;;14.15;38.90
36242;BME280;22283;42.748;12.732;2023-04-10T14:34:52;98421.91;;;13.92;40.70
36242;BME280;22283;42.748;12.732;2023-04-10T14:39:53;98415.41;;;13.85;40.38
36242;BME280;22283;42.748;12.732;2023-04-10T14:44:53;98402.91;;;13.96;40.20
36242;BME280;22283;42.748;12.732;2023-04-10T14:49:54;98403.94;;;14.05;40.44
36242;BME280;22283;42.748;12.732;2023-04-10T14:54:55;98411.97;;;14.26;39.74
36242;BME280;22283;42.748;12.732;2023-04-10T14:59:56;98403.53;;;14.21;40.70
36242;BME280;22283;42.748;12.732;2023-04-10T15:04:56;98405.19;;;14.01;40.22
36242;BME280;22283;42.748;12.732;2023-04-10T15:09:58;98410.59;;;13.78;40.27
36242;BME280;22283;42.748;12.732;2023-04-10T15:14:58;98415.22;;;13.54;40.03
36242;BME280;22283;42.748;12.732;2023-04-10T15:20:00;98403.19;;;13.39;40.42
36242;BME280;22283;42.748;12.732;2023-04-10T15:25:01;98414.53;;;13.41;39.66
36242;BME280;22283;42.748;12.732;2023-04-10T15:30:03;98407.38;;;13.52;39.12
36242;BME280;22283;42.748;12.732;2023-04-10T15:35:04;98421.06;;;13.48;39.49
36242;BME280;22283;42.748;12.732;2023-04-10T15:40:05;98420.09;;;13.38;38.66
36242;BME280;22283;42.748;12.732;2023-04-10T15:45:07;98419.97;;;13.39;39.21
36242;BME280;22283;42.748;12.732;2023-04-10T15:50:07;98425.41;;;13.38;39.68
36242;BME280;22283;42.748;12.732;2023-04-10T15:55:08;98424.19;;;13.42;39.85
36242;BME280;22283;42.748;12.732;2023-04-10T16:00:10;98418.63;;;13.45;39.71
36242;BME280;22283;42.748;12.732;2023-04-10T16:05:11;98430.00;;;13.47;40.31
36242;BME280;22283;42.748;12.732;2023-04-10T16:10:11;98436.78;;;13.40;40.63
36242;BME280;22283;42.748;12.732;2023-04-10T16:15:12;98435.56;;;13.33;41.02
36242;BME280;22283;42.748;12.732;2023-04-10T16:20:13;98423.00;;;13.23;41.03
36242;BME280;22283;42.748;12.732;2023-04-10T16:25:14;98424.69;;;13.24;42.23
36242;BME280;22283;42.748;12.732;2023-04-10T16:30:14;98414.06;;;13.24;42.47
36242;BME280;22283;42.748;12.732;2023-04-10T16:35:16;98401.00;;;13.10;42.43
36242;BME280;22283;42.748;12.732;2023-04-10T16:40:18;98418.41;;;13.03;42.91
36242;BME280;22283;42.748;12.732;2023-04-10T16:45:18;98425.75;;;12.99;42.77
36242;BME280;22283;42.748;12.732;2023-04-10T16:50:19;98421.03;;;12.80;42.74
36242;BME280;22283;42.748;12.732;2023-04-10T16:55:20;98425.00;;;12.64;43.21
36242;BME280;22283;42.748;12.732;2023-04-10T17:00:21;98421.69;;;12.49;43.95
36242;BME280;22283;42.748;12.732;2023-04-10T17:05:21;98411.28;;;12.35;44.66
36242;BME280;22283;42.748;12.732;2023-04-10T17:10:22;98423.28;;;12.16;45.45
36242;BME280;22283;42.748;12.732;2023-04-10T17:15:23;98425.28;;;12.01;44.56
36242;BME280;22283;42.748;12.732;2023-04-10T17:20:23;98426.69;;;11.94;44.02
36242;BME280;22283;42.748;12.732;2023-04-10T17:25:24;98413.91;;;11.75;43.63
36242;BME280;22283;42.748;12.732;2023-04-10T17:30:25;98415.59;;;11.52;44.28
36242;BME280;22283;42.748;12.732;2023-04-10T17:35:26;98420.31;;;11.23;45.11
36242;BME280;22283;42.748;12.732;2023-04-10T17:40:27;98409.47;;;10.90;45.92
36242;BME280;22283;42.748;12.732;2023-04-10T17:45:28;98411.19;;;10.78;46.62
36242;BME280;22283;42.748;12.732;2023-04-10T17:50:29;98411.28;;;10.51;47.93
36242;BME280;22283;42.748;12.732;2023-04-10T17:55:31;98425.84;;;10.31;48.76
36242;BME280;22283;42.748;12.732;2023-04-10T18:00:39;98437.38;;;10.03;49.51
36242;BME280;22283;42.748;12.732;2023-04-10T18:05:40;98441.28;;;9.70;50.25
36242;BME280;22283;42.748;12.732;2023-04-10T18:10:41;98439.16;;;9.48;51.03
36242;BME280;22283;42.748;12.732;2023-04-10T18:15:41;98458.16;;;9.41;51.85
36242;BME280;22283;42.748;12.732;2023-04-10T18:20:42;98460.06;;;9.24;52.47
36242;BME280;22283;42.748;12.732;2023-04-10T18:25:53;98463.75;;;9.07;53.22
36242;BME280;22283;42.748;12.732;2023-04-10T18:30:55;98481.63;;;9.02;53.18
36242;BME280;22283;42.748;12.732;2023-04-10T18:35:59;98481.53;;;8.90;53.13
36242;BME280;22283;42.748;12.732;2023-04-10T18:40:59;98483.31;;;8.75;53.81
36242;BME280;22283;42.748;12.732;2023-04-10T18:46:00;98487.97;;;8.41;56.44
36242;BME280;22283;42.748;12.732;2023-04-10T18:51:01;98495.66;;;7.98;57.93
36242;BME280;22283;42.748;12.732;2023-04-10T18:56:02;98496.88;;;7.61;60.38
36242;BME280;22283;42.748;12.732;2023-04-10T19:01:02;98506.94;;;7.21;65.04
36242;BME280;22283;42.748;12.732;2023-04-10T19:06:03;98520.63;;;6.95;66.23
36242;BME280;22283;42.748;12.732;2023-04-10T19:11:06;98520.66;;;6.60;69.03
36242;BME280;22283;42.748;12.732;2023-04-10T19:16:07;98525.13;;;6.23;71.72
36242;BME280;22283;42.748;12.732;2023-04-10T19:21:08;98524.59;;;6.34;70.67
36242;BME280;22283;42.748;12.732;2023-04-10T19:26:09;98526.16;;;6.38;69.83
36242;BME280;22283;42.748;12.732;2023-04-10T19:31:10;98526.25;;;6.18;71.47
36242;BME280;22283;42.748;12.732;2023-04-10T19:36:10;98535.75;;;6.03;72.39
36242;BME280;22283;42.748;12.732;2023-04-10T19:41:12;98539.59;;;5.96;72.96
36242;BME280;22283;42.748;12.732;2023-04-10T19:46:17;98539.22;;;6.03;72.29
36242;BME280;22283;42.748;12.732;2023-04-10T19:51:18;98527.50;;;5.91;73.40
36242;BME280;22283;42.748;12.732;2023-04-10T19:56:19;98515.72;;;5.81;74.58
36242;BME280;22283;42.748;12.732;2023-04-10T20:01:20;98524.69;;;5.77;75.08
36242;BME280;22283;42.748;12.732;2023-04-10T20:06:23;98518.31;;;5.64;75.69
36242;BME280;22283;42.748;12.732;2023-04-10T20:11:23;98521.16;;;5.59;75.94
36242;BME280;22283;42.748;12.732;2023-04-10T20:16:29;98519.16;;;5.46;76.36
36242;BME280;22283;42.748;12.732;2023-04-10T20:21:32;98523.91;;;5.37;76.69
36242;BME280;22283;42.748;12.732;2023-04-10T20:26:33;98535.19;;;5.21;78.89
36242;BME280;22283;42.748;12.732;2023-04-10T20:31:34;98534.47;;;5.17;79.16
36242;BME280;22283;42.748;12.732;2023-04-10T20:36:34;98535.13;;;5.02;79.81
36242;BME280;22283;42.748;12.732;2023-04-10T20:41:35;98537.13;;;4.97;80.72
36242;BME280;22283;42.748;12.732;2023-04-10T20:46:36;98543.94;;;4.80;81.15
36242;BME280;22283;42.748;12.732;2023-04-10T20:51:37;98536.66;;;4.46;83.63
36242;BME280;22283;42.748;12.732;2023-04-10T20:56:37;98535.69;;;4.49;85.80
36242;BME280;22283;42.748;12.732;2023-04-10T21:01:38;98531.91;;;4.56;86.79
36242;BME280;22283;42.748;12.732;2023-04-10T21:06:39;98533.47;;;4.60;84.81
36242;BME280;22283;42.748;12.732;2023-04-10T21:11:39;98533.59;;;4.57;84.18
36242;BME280;22283;42.748;12.732;2023-04-10T21:16:40;98550.06;;;4.38;86.46
36242;BME280;22283;42.748;12.732;2023-04-10T21:21:41;98545.41;;;4.25;89.89
36242;BME280;22283;42.748;12.732;2023-04-10T21:26:42;98533.78;;;4.10;90.38
36242;BME280;22283;42.748;12.732;2023-04-10T21:31:43;98539.16;;;4.07;92.47
36242;BME280;22283;42.748;12.732;2023-04-10T21:36:44;98540.44;;;3.97;93.79
36242;BME280;22283;42.748;12.732;2023-04-10T21:41:44;98536.75;;;3.80;92.35
36242;BME280;22283;42.748;12.732;2023-04-10T21:46:45;98529.47;;;3.87;89.39
36242;BME280;22283;42.748;12.732;2023-04-10T21:51:46;98535.31;;;3.72;89.21
36242;BME280;22283;42.748;12.732;2023-04-10T21:56:47;98545.22;;;3.63;89.70
36242;BME280;22283;42.748;12.732;2023-04-10T22:01:48;98543.16;;;3.50;90.66
36242;BME280;22283;42.748;12.732;2023-04-10T22:06:48;98548.50;;;3.47;90.97
36242;BME280;22283;42.748;12.732;2023-04-10T22:11:49;98552.81;;;3.24;92.30
36242;BME280;22283;42.748;12.732;2023-04-10T22:16:50;98546.53;;;3.05;93.46
36242;BME280;22283;42.748;12.732;2023-04-10T22:21:50;98541.56;;;3.22;92.89
36242;BME280;22283;42.748;12.732;2023-04-10T22:26:51;98524.66;;;3.07;92.54
36242;BME280;22283;42.748;12.732;2023-04-10T22:31:52;98524.38;;;2.91;94.33
36242;BME280;22283;42.748;12.732;2023-04-10T22:36:53;98525.63;;;3.05;93.71
36242;BME280;22283;42.748;12.732;2023-04-10T22:41:53;98535.19;;;3.06;92.91
36242;BME280;22283;42.748;12.732;2023-04-10T22:46:54;98539.19;;;2.91;94.43
36242;BME280;22283;42.748;12.732;2023-04-10T22:51:55;98543.91;;;2.81;94.66
36242;BME280;22283;42.748;12.732;2023-04-10T22:56:56;98540.91;;;2.67;94.64
36242;BME280;22283;42.748;12.732;2023-04-10T23:01:57;98555.69;;;2.68;94.77
36242;BME280;22283;42.748;12.732;2023-04-10T23:06:58;98561.13;;;2.62;94.96
36242;BME280;22283;42.748;12.732;2023-04-10T23:11:58;98573.63;;;2.52;95.68
36242;BME280;22283;42.748;12.732;2023-04-10T23:17:01;98582.63;;;2.43;95.77
36242;BME280;22283;42.748;12.732;2023-04-10T23:22:01;98599.50;;;2.33;96.87
36242;BME280;22283;42.748;12.732;2023-04-10T23:27:05;98601.31;;;2.31;96.99
36242;BME280;22283;42.748;12.732;2023-04-10T23:32:06;98598.50;;;2.11;96.97
36242;BME280;22283;42.748;12.732;2023-04-10T23:37:07;98593.19;;;2.14;97.57
36242;BME280;22283;42.748;12.732;2023-04-10T23:42:08;98586.31;;;2.10;97.92
36242;BME280;22283;42.748;12.732;2023-04-10T23:47:09;98579.22;;;2.15;97.63
36242;BME280;22283;42.748;12.732;2023-04-10T23:52:09;98573.69;;;2.24;95.83
36242;BME280;22283;42.748;12.732;2023-04-10T23:57:10;98572.34;;;2.12;96.12
